createdAt,value
2022-08-21T00:01:35.768Z,95.33
2022-08-21T00:04:07.578Z,95.70
2022-08-21T00:06:34.933Z,95.42
2022-08-21T00:09:06.251Z,94.88
2022-08-21T00:11:34.080Z,94.86
2022-08-21T00:14:00.511Z,94.64
2022-08-21T00:16:27.044Z,94.50
2022-08-21T00:18:53.696Z,94.49
2022-08-21T00:21:20.237Z,94.36
2022-08-21T00:23:46.671Z,94.26
2022-08-21T00:26:13.022Z,93.99
2022-08-21T00:28:39.551Z,93.93
2022-08-21T00:31:06.187Z,94.89
2022-08-21T00:33:33.017Z,95.22
2022-08-21T00:35:59.459Z,95.84
2022-08-21T00:38:25.844Z,96.26
2022-08-21T00:40:59.645Z,96.97
2022-08-21T00:43:35.685Z,96.87
2022-08-21T00:46:03.031Z,96.46
2022-08-21T00:48:29.481Z,96.13
2022-08-21T00:51:26.431Z,95.54
2022-08-21T00:54:00.619Z,95.49
2022-08-21T00:56:28.198Z,96.11
2022-08-21T00:58:56.400Z,96.03
2022-08-21T01:01:22.911Z,96.30
2022-08-21T01:03:50.313Z,95.57
2022-08-21T01:06:17.089Z,95.73
2022-08-21T01:08:47.001Z,96.14
2022-08-21T01:11:15.238Z,96.57
2022-08-21T01:13:46.714Z,97.33
2022-08-21T01:16:16.509Z,97.63
2022-08-21T01:18:44.395Z,98.03
2022-08-21T01:21:18.715Z,98.07
2022-08-21T01:23:50.817Z,97.90
2022-08-21T01:26:21.368Z,97.81
2022-08-21T01:28:58.307Z,97.63
2022-08-21T01:31:26.541Z,97.44
2022-08-21T01:33:53.633Z,97.34
2022-08-21T01:36:20.207Z,97.78
2022-08-21T01:38:48.074Z,98.15
2022-08-21T01:41:15.432Z,98.78
2022-08-21T01:43:43.441Z,99.31
2022-08-21T01:46:11.129Z,99.23
2022-08-21T01:48:37.970Z,99.50
2022-08-21T01:51:05.539Z,99.17
2022-08-21T01:53:33.213Z,98.92
2022-08-21T01:56:00.203Z,98.61
2022-08-21T01:58:26.626Z,98.55
2022-08-21T02:00:53.117Z,98.63
2022-08-21T02:03:26.412Z,99.01
2022-08-21T02:06:03.757Z,99.35
2022-08-21T02:08:30.435Z,99.62
2022-08-21T02:10:56.807Z,99.58
2022-08-21T02:13:23.174Z,99.96
2022-08-21T02:15:49.610Z,100.00
2022-08-21T02:18:16.243Z,100.00
2022-08-21T02:20:47.313Z,100.00
2022-08-21T02:23:14.893Z,100.00
2022-08-21T02:25:42.008Z,100.00
2022-08-21T02:28:13.026Z,100.00
2022-08-21T02:30:46.026Z,100.00
2022-08-21T02:33:13.150Z,100.00
2022-08-21T02:35:42.939Z,100.00
2022-08-21T02:38:12.767Z,100.00
2022-08-21T02:40:48.040Z,100.00
2022-08-21T02:43:16.188Z,100.00
2022-08-21T02:45:44.215Z,100.00
2022-08-21T02:48:14.237Z,100.00
2022-08-21T02:50:44.282Z,100.00
2022-08-21T02:53:15.494Z,100.00
2022-08-21T02:55:42.048Z,100.00
2022-08-21T02:58:09.024Z,100.00
2022-08-21T03:00:37.360Z,100.00
2022-08-21T03:03:04.763Z,100.00
2022-08-21T03:05:32.515Z,99.96
2022-08-21T03:08:01.014Z,99.68
2022-08-21T03:10:28.956Z,99.36
2022-08-21T03:12:55.492Z,99.58
2022-08-21T03:15:24.621Z,99.86
2022-08-21T03:17:52.505Z,100.00
2022-08-21T03:20:22.905Z,100.00
2022-08-21T03:22:52.999Z,100.00
2022-08-21T03:25:21.416Z,100.00
2022-08-21T03:27:59.226Z,100.00
2022-08-21T03:30:26.407Z,100.00
2022-08-21T03:32:53.656Z,100.00
2022-08-21T03:35:22.151Z,100.00
2022-08-21T03:37:48.487Z,100.00
2022-08-21T03:40:17.097Z,100.00
2022-08-21T03:42:43.586Z,99.71
2022-08-21T03:45:10.883Z,99.88
2022-08-21T03:47:37.243Z,99.76
2022-08-21T03:50:06.221Z,99.90
2022-08-21T03:52:32.580Z,99.89
2022-08-21T03:54:58.991Z,99.76
2022-08-21T03:57:25.408Z,99.74
2022-08-21T03:59:51.767Z,99.53
2022-08-21T04:02:21.653Z,99.65
2022-08-21T04:04:48.025Z,99.90
2022-08-21T04:07:14.430Z,100.00
2022-08-21T04:09:40.802Z,100.00
2022-08-21T04:12:07.855Z,100.00
2022-08-21T04:14:34.264Z,100.00
2022-08-21T04:17:00.652Z,100.00
2022-08-21T04:19:27.455Z,100.00
2022-08-21T04:21:53.822Z,100.00
2022-08-21T04:24:20.466Z,100.00
2022-08-21T04:26:46.830Z,100.00
2022-08-21T04:29:13.297Z,100.00
2022-08-21T04:31:39.652Z,100.00
2022-08-21T04:34:06.712Z,100.00
2022-08-21T04:36:34.321Z,100.00
2022-08-21T04:39:00.817Z,100.00
2022-08-21T04:41:29.976Z,100.00
2022-08-21T04:43:56.717Z,100.00
2022-08-21T04:46:23.750Z,100.00
2022-08-21T04:48:50.590Z,100.00
2022-08-21T04:51:26.555Z,100.00
2022-08-21T04:54:04.271Z,100.00
2022-08-21T04:56:37.867Z,100.00
2022-08-21T04:59:12.133Z,100.00
2022-08-21T05:01:40.774Z,100.00
2022-08-21T05:04:10.835Z,100.00
2022-08-21T05:06:40.385Z,100.00
2022-08-21T05:09:07.138Z,100.00
2022-08-21T05:11:34.241Z,100.00
2022-08-21T05:14:00.613Z,100.00
2022-08-21T05:16:36.393Z,100.00
2022-08-21T05:19:08.388Z,100.00
2022-08-21T05:21:36.056Z,100.00
2022-08-21T05:24:03.068Z,100.00
2022-08-21T05:26:29.413Z,100.00
2022-08-21T05:28:55.912Z,100.00
2022-08-21T05:31:24.112Z,100.00
2022-08-21T05:33:50.639Z,100.00
2022-08-21T05:36:19.239Z,100.00
2022-08-21T05:38:45.804Z,100.00
2022-08-21T05:41:12.320Z,100.00
2022-08-21T05:43:38.715Z,100.00
2022-08-21T05:46:07.040Z,100.00
2022-08-21T05:48:34.407Z,100.00
2022-08-21T05:51:13.143Z,99.84
2022-08-21T05:53:42.954Z,99.73
2022-08-21T05:56:10.814Z,99.78
2022-08-21T05:58:37.376Z,99.24
2022-08-21T06:01:04.675Z,98.81
2022-08-21T06:03:34.858Z,98.81
2022-08-21T06:06:02.328Z,99.05
2022-08-21T06:08:29.724Z,98.88
2022-08-21T06:10:58.344Z,99.42
2022-08-21T06:13:24.803Z,99.22
2022-08-21T06:16:01.983Z,99.64
2022-08-21T06:18:28.558Z,99.70
2022-08-21T06:20:54.913Z,99.28
2022-08-21T06:23:21.300Z,97.96
2022-08-21T06:25:59.401Z,97.37
2022-08-21T06:28:26.048Z,96.31
2022-08-21T06:30:52.407Z,94.55
2022-08-21T06:33:18.928Z,94.23
2022-08-21T06:35:45.364Z,92.34
2022-08-21T06:38:11.710Z,91.51
2022-08-21T06:40:47.063Z,90.18
2022-08-21T06:43:17.539Z,88.33
2022-08-21T06:45:44.846Z,86.41
2022-08-21T06:48:14.542Z,85.26
2022-08-21T06:50:43.471Z,83.96
2022-08-21T06:53:13.702Z,83.92
2022-08-21T06:55:42.965Z,83.45
2022-08-21T06:58:10.142Z,81.97
2022-08-21T07:00:40.724Z,82.54
2022-08-21T07:03:07.475Z,81.00
2022-08-21T07:05:33.990Z,79.87
2022-08-21T07:08:00.440Z,80.25
2022-08-21T07:10:27.494Z,79.48
2022-08-21T07:13:01.008Z,79.99
2022-08-21T07:15:30.345Z,80.45
2022-08-21T07:17:58.086Z,80.63
2022-08-21T07:20:24.632Z,81.63
2022-08-21T07:22:51.735Z,80.40
2022-08-21T07:25:18.158Z,79.53
2022-08-21T07:27:44.532Z,79.83
2022-08-21T07:30:11.235Z,79.67
2022-08-21T07:32:37.570Z,79.01
2022-08-21T07:35:04.746Z,76.62
2022-08-21T07:37:31.124Z,76.13
2022-08-21T07:39:57.568Z,76.05
2022-08-21T07:42:24.277Z,74.34
2022-08-21T07:44:51.848Z,70.61
2022-08-21T07:47:41.476Z,70.74
2022-08-21T07:50:08.636Z,68.77
2022-08-21T07:52:35.407Z,68.51
2022-08-21T07:55:06.007Z,66.56
2022-08-21T07:57:33.291Z,65.19
2022-08-21T07:59:59.886Z,65.38
2022-08-21T08:02:29.180Z,63.93
2022-08-21T08:05:00.097Z,62.32
2022-08-21T08:07:27.062Z,61.97
2022-08-21T08:09:53.487Z,59.85
2022-08-21T08:12:20.946Z,59.90
2022-08-21T08:14:47.634Z,57.08
2022-08-21T08:17:16.939Z,56.90
2022-08-21T08:19:43.278Z,57.57
2022-08-21T08:22:22.059Z,57.59
2022-08-21T08:24:49.288Z,57.93
2022-08-21T08:27:17.086Z,57.82
2022-08-21T08:29:44.330Z,57.96
2022-08-21T08:32:10.741Z,56.84
2022-08-21T08:34:37.971Z,57.57
2022-08-21T08:37:05.426Z,57.48
2022-08-21T08:39:33.979Z,57.22
2022-08-21T08:42:33.995Z,57.63
2022-08-21T08:45:17.996Z,56.71
2022-08-21T08:47:50.034Z,56.54
2022-08-21T08:50:27.385Z,56.39
2022-08-21T08:53:01.099Z,56.95
2022-08-21T08:55:36.065Z,56.90
2022-08-21T08:58:03.590Z,56.92
2022-08-21T09:00:31.778Z,56.84
2022-08-21T09:03:01.054Z,57.29
2022-08-21T09:05:43.480Z,57.44
2022-08-21T09:08:25.274Z,57.51
2022-08-21T09:11:03.748Z,58.76
2022-08-21T09:13:54.988Z,57.40
2022-08-21T09:16:41.514Z,57.96
2022-08-21T09:19:24.807Z,57.97
2022-08-21T09:22:08.242Z,58.14
2022-08-21T09:24:58.010Z,58.18
2022-08-21T09:27:24.754Z,58.60
2022-08-21T09:29:55.094Z,58.33
2022-08-21T09:32:36.919Z,57.83
2022-08-21T09:35:20.758Z,57.71
2022-08-21T09:37:53.730Z,58.29
2022-08-21T09:40:44.421Z,58.39
2022-08-21T09:43:19.581Z,57.66
2022-08-21T09:45:47.766Z,57.68
2022-08-21T09:48:26.333Z,56.68
2022-08-21T09:51:05.407Z,57.77
2022-08-21T09:53:35.633Z,57.23
2022-08-21T09:56:35.399Z,55.73
2022-08-21T09:59:01.772Z,55.86
2022-08-21T10:01:28.229Z,55.65
2022-08-21T10:04:35.179Z,54.66
2022-08-21T10:07:15.438Z,55.44
2022-08-21T10:09:42.660Z,53.55
2022-08-21T10:12:26.223Z,53.16
2022-08-21T10:14:59.762Z,52.75
2022-08-21T10:17:45.887Z,53.93
2022-08-21T10:20:23.117Z,52.75
2022-08-21T10:23:07.936Z,52.29
2022-08-21T10:25:56.956Z,53.30
2022-08-21T10:28:36.320Z,53.91
2022-08-21T10:31:36.424Z,55.27
2022-08-21T10:34:25.049Z,55.36
2022-08-21T10:37:21.912Z,52.02
2022-08-21T10:40:22.097Z,51.97
2022-08-21T10:42:54.529Z,52.69
2022-08-21T10:45:50.535Z,51.47
2022-08-21T10:48:42.733Z,49.55
2022-08-21T10:51:34.684Z,50.35
2022-08-21T10:54:24.499Z,51.47
2022-08-21T10:56:59.996Z,50.88
2022-08-21T10:59:32.481Z,51.26
2022-08-21T11:02:23.100Z,51.69
2022-08-21T11:05:23.555Z,52.03
2022-08-21T11:07:55.778Z,52.66
2022-08-21T11:10:28.551Z,52.18
2022-08-21T11:13:23.085Z,52.73
2022-08-21T11:16:06.253Z,53.55
2022-08-21T11:18:38.483Z,53.22
2022-08-21T11:21:20.455Z,52.95
2022-08-21T11:23:54.189Z,52.82
2022-08-21T11:26:31.203Z,53.14
2022-08-21T11:29:12.790Z,50.21
2022-08-21T11:31:50.060Z,48.60
2022-08-21T11:34:31.416Z,49.64
2022-08-21T11:37:16.628Z,50.44
2022-08-21T11:39:52.962Z,48.43
2022-08-21T11:42:57.050Z,47.03
2022-08-21T11:45:36.361Z,47.84
2022-08-21T11:48:21.754Z,48.20
2022-08-21T11:50:51.178Z,45.93
2022-08-21T11:53:25.351Z,47.70
2022-08-21T11:56:01.242Z,47.43
2022-08-21T11:58:42.095Z,48.56
2022-08-21T12:01:15.654Z,47.66
2022-08-21T12:03:54.371Z,48.33
2022-08-21T12:06:33.898Z,46.40
2022-08-21T12:09:06.714Z,46.91
2022-08-21T12:11:33.406Z,45.95
2022-08-21T12:14:01.715Z,45.26
2022-08-21T12:16:41.798Z,46.19
2022-08-21T12:19:21.695Z,44.37
2022-08-21T12:22:12.970Z,45.74
2022-08-21T12:24:51.914Z,45.74
2022-08-21T12:27:20.777Z,46.60
2022-08-21T12:29:50.513Z,46.97
2022-08-21T12:32:16.789Z,46.36
2022-08-21T12:34:49.158Z,45.58
2022-08-21T12:37:15.473Z,44.52
2022-08-21T12:39:45.487Z,45.01
2022-08-21T12:42:19.452Z,44.07
2022-08-21T12:44:54.634Z,45.37
2022-08-21T12:47:51.536Z,45.21
2022-08-21T12:50:45.353Z,45.73
2022-08-21T12:53:36.885Z,44.24
2022-08-21T12:56:05.003Z,43.27
2022-08-21T12:58:32.714Z,42.09
2022-08-21T13:01:25.216Z,44.88
2022-08-21T13:03:55.484Z,44.44
2022-08-21T13:06:38.940Z,44.77
2022-08-21T13:09:09.223Z,45.28
2022-08-21T13:11:36.154Z,45.06
2022-08-21T13:14:05.244Z,44.22
2022-08-21T13:16:32.773Z,44.28
2022-08-21T13:19:06.280Z,42.04
2022-08-21T13:21:41.600Z,41.80
2022-08-21T13:24:38.664Z,42.51
2022-08-21T13:26:58.287Z,41.74
2022-08-21T13:29:30.120Z,42.07
2022-08-21T13:32:02.828Z,44.25
2022-08-21T13:34:37.675Z,44.61
2022-08-21T13:37:08.373Z,43.05
2022-08-21T13:39:35.157Z,43.97
2022-08-21T13:42:07.095Z,43.92
2022-08-21T13:44:45.570Z,44.20
2022-08-21T13:47:14.844Z,43.49
2022-08-21T13:49:46.205Z,44.06
2022-08-21T13:52:22.339Z,44.00
2022-08-21T13:54:59.195Z,42.87
2022-08-21T13:57:32.504Z,43.90
2022-08-21T14:00:13.136Z,44.04
2022-08-21T14:02:42.944Z,45.74
2022-08-21T14:05:21.931Z,44.47
2022-08-21T14:07:51.103Z,44.40
2022-08-21T14:10:23.325Z,43.55
2022-08-21T14:13:01.951Z,42.36
2022-08-21T14:15:31.276Z,43.29
2022-08-21T14:18:15.192Z,43.62
2022-08-21T14:20:41.832Z,42.57
2022-08-21T14:23:08.373Z,43.76
2022-08-21T14:25:44.276Z,44.32
2022-08-21T14:28:50.135Z,44.89
2022-08-21T14:31:21.959Z,44.90
2022-08-21T14:33:48.971Z,43.83
2022-08-21T14:36:15.459Z,43.80
2022-08-21T14:38:42.140Z,42.13
2022-08-21T14:41:20.710Z,41.55
2022-08-21T14:43:47.970Z,41.04
2022-08-21T14:46:28.989Z,41.66
2022-08-21T14:48:55.530Z,42.09
2022-08-21T14:51:22.139Z,41.30
2022-08-21T14:53:48.987Z,42.26
2022-08-21T14:56:16.699Z,40.87
2022-08-21T14:58:46.935Z,40.95
2022-08-21T15:01:15.329Z,40.31
2022-08-21T15:03:41.847Z,41.54
2022-08-21T15:06:09.476Z,42.16
2022-08-21T15:08:36.578Z,43.57
2022-08-21T15:11:14.616Z,43.66
2022-08-21T15:13:44.191Z,43.43
2022-08-21T15:16:12.648Z,43.39
2022-08-21T15:18:39.383Z,42.20
2022-08-21T15:21:06.281Z,41.63
2022-08-21T15:23:32.852Z,42.67
2022-08-21T15:25:59.783Z,42.18
2022-08-21T15:28:27.503Z,43.45
2022-08-21T15:31:00.032Z,42.24
2022-08-21T15:33:26.427Z,41.93
2022-08-21T15:35:52.819Z,42.74
2022-08-21T15:38:19.200Z,41.42
2022-08-21T15:40:52.031Z,41.75
2022-08-21T15:43:30.666Z,42.67
2022-08-21T15:45:59.524Z,41.54
2022-08-21T15:48:26.040Z,42.61
2022-08-21T15:50:52.405Z,42.77
2022-08-21T15:53:19.017Z,41.49
2022-08-21T15:55:45.464Z,42.30
2022-08-21T15:58:17.728Z,41.60
2022-08-21T16:00:45.436Z,42.13
2022-08-21T16:03:17.416Z,42.73
2022-08-21T16:05:49.187Z,43.26
2022-08-21T16:08:15.914Z,43.55
2022-08-21T16:10:42.420Z,43.74
2022-08-21T16:13:17.343Z,44.07
2022-08-21T16:15:43.826Z,42.45
2022-08-21T16:18:10.999Z,43.79
2022-08-21T16:20:37.413Z,44.02
2022-08-21T16:23:03.919Z,44.84
2022-08-21T16:25:30.422Z,45.10
2022-08-21T16:28:02.341Z,44.51
2022-08-21T16:30:30.861Z,45.37
2022-08-21T16:32:57.976Z,45.19
2022-08-21T16:35:25.054Z,44.98
2022-08-21T16:37:53.327Z,44.84
2022-08-21T16:40:20.632Z,45.04
2022-08-21T16:42:48.583Z,44.92
2022-08-21T16:45:18.092Z,44.71
2022-08-21T16:47:45.052Z,45.25
2022-08-21T16:50:22.247Z,45.34
2022-08-21T16:52:48.946Z,45.31
2022-08-21T16:55:15.916Z,45.53
2022-08-21T16:57:42.653Z,44.64
2022-08-21T17:00:13.653Z,45.47
2022-08-21T17:02:44.896Z,46.32
2022-08-21T17:05:13.998Z,45.97
2022-08-21T17:07:42.033Z,45.84
2022-08-21T17:10:10.412Z,45.21
2022-08-21T17:12:36.881Z,45.42
2022-08-21T17:15:08.303Z,44.60
2022-08-21T17:17:35.560Z,45.58
2022-08-21T17:20:02.067Z,46.11
2022-08-21T17:22:28.562Z,45.41
2022-08-21T17:24:55.000Z,45.09
2022-08-21T17:27:26.793Z,45.68
2022-08-21T17:29:54.535Z,46.06
2022-08-21T17:32:21.611Z,46.91
2022-08-21T17:34:48.091Z,48.15
2022-08-21T17:37:15.101Z,48.97
2022-08-21T17:39:41.730Z,49.14
2022-08-21T17:42:11.428Z,50.15
2022-08-21T17:44:39.806Z,50.78
2022-08-21T17:47:07.268Z,50.44
2022-08-21T17:49:33.894Z,51.10
2022-08-21T17:52:00.374Z,51.90
2022-08-21T17:54:27.512Z,52.54
2022-08-21T17:56:55.646Z,54.04
2022-08-21T17:59:23.710Z,55.66
2022-08-21T18:01:50.676Z,56.58
2022-08-21T18:04:17.272Z,56.99
2022-08-21T18:06:44.748Z,57.93
2022-08-21T18:09:12.676Z,58.21
2022-08-21T18:11:41.451Z,58.79
2022-08-21T18:14:08.480Z,60.13
2022-08-21T18:16:37.340Z,60.20
2022-08-21T18:19:09.403Z,60.67
2022-08-21T18:21:37.183Z,61.17
2022-08-21T18:24:04.208Z,62.24
2022-08-21T18:26:34.708Z,63.08
2022-08-21T18:29:02.263Z,64.47
2022-08-21T18:31:31.954Z,64.54
2022-08-21T18:34:00.609Z,65.07
2022-08-21T18:36:29.523Z,65.24
2022-08-21T18:39:08.622Z,66.15
2022-08-21T18:41:40.734Z,65.80
2022-08-21T18:44:07.264Z,66.01
2022-08-21T18:46:33.603Z,66.86
2022-08-21T18:49:00.139Z,67.07
2022-08-21T18:51:26.573Z,67.37
2022-08-21T18:53:56.159Z,67.28
2022-08-21T18:56:22.576Z,67.94
2022-08-21T18:58:50.712Z,68.73
2022-08-21T19:01:17.755Z,68.93
2022-08-21T19:03:44.298Z,69.62
2022-08-21T19:06:11.892Z,69.59
2022-08-21T19:08:38.534Z,69.93
2022-08-21T19:11:06.413Z,70.10
2022-08-21T19:13:33.698Z,70.56
2022-08-21T19:16:03.804Z,70.82
2022-08-21T19:18:33.323Z,72.38
2022-08-21T19:21:01.680Z,73.01
2022-08-21T19:23:29.297Z,73.88
2022-08-21T19:26:00.799Z,74.21
2022-08-21T19:28:34.446Z,74.52
2022-08-21T19:31:10.640Z,75.20
2022-08-21T19:33:40.828Z,75.66
2022-08-21T19:36:12.031Z,76.00
2022-08-21T19:38:39.041Z,76.03
2022-08-21T19:41:09.340Z,76.82
2022-08-21T19:43:42.480Z,77.51
2022-08-21T19:46:09.048Z,78.49
2022-08-21T19:48:36.923Z,79.01
2022-08-21T19:51:04.177Z,79.98
2022-08-21T19:53:30.526Z,80.15
2022-08-21T19:55:56.929Z,80.08
2022-08-21T19:58:34.862Z,80.48
2022-08-21T20:01:05.204Z,80.24
2022-08-21T20:03:43.934Z,80.98
2022-08-21T20:06:10.635Z,81.30
2022-08-21T20:08:37.090Z,81.90
2022-08-21T20:11:06.016Z,81.99
2022-08-21T20:13:33.813Z,82.03
2022-08-21T20:16:02.526Z,82.32
2022-08-21T20:18:31.202Z,82.43
2022-08-21T20:20:57.762Z,82.73
2022-08-21T20:23:30.441Z,83.41
2022-08-21T20:25:58.851Z,83.14
2022-08-21T20:28:27.262Z,83.00
2022-08-21T20:30:55.555Z,82.90
2022-08-21T20:33:22.131Z,82.95
2022-08-21T20:35:49.968Z,83.45
2022-08-21T20:38:16.981Z,84.07
2022-08-21T20:40:44.191Z,84.33
2022-08-21T20:43:12.794Z,84.60
2022-08-21T20:45:40.553Z,85.61
2022-08-21T20:48:49.164Z,87.51
2022-08-21T20:51:28.141Z,86.92
2022-08-21T20:54:22.913Z,87.48
2022-08-21T20:57:16.672Z,87.13
2022-08-21T20:59:52.709Z,87.58
2022-08-21T21:02:35.974Z,87.91
2022-08-21T21:05:06.980Z,87.49
2022-08-21T21:07:47.666Z,86.18
2022-08-21T21:10:23.793Z,86.43
2022-08-21T21:12:55.210Z,86.69
2022-08-21T21:15:29.294Z,86.79
2022-08-21T21:18:13.088Z,87.00
2022-08-21T21:21:32.874Z,87.00
2022-08-21T21:24:07.103Z,87.63
2022-08-21T21:26:44.597Z,88.40
2022-08-21T21:29:34.837Z,88.45
2022-08-21T21:32:04.267Z,88.07
2022-08-21T21:34:36.558Z,88.21
2022-08-21T21:37:07.134Z,87.80
2022-08-21T21:39:46.275Z,87.90
2022-08-21T21:42:31.446Z,88.36
2022-08-21T21:45:23.533Z,88.21
2022-08-21T21:48:10.011Z,88.01
2022-08-21T21:51:01.118Z,88.20
2022-08-21T21:53:45.430Z,88.08
2022-08-21T21:56:40.411Z,88.69
2022-08-21T21:59:25.442Z,88.94
2022-08-21T22:02:27.290Z,89.22
2022-08-21T22:04:59.789Z,89.15
2022-08-21T22:08:02.404Z,89.28
2022-08-21T22:10:46.002Z,88.87
2022-08-21T22:13:26.815Z,89.88
2022-08-21T22:15:54.397Z,91.12
2022-08-21T22:18:26.332Z,91.79
2022-08-21T22:21:00.146Z,91.98
2022-08-21T22:23:31.845Z,92.14
2022-08-21T22:26:08.243Z,93.50
2022-08-21T22:28:41.695Z,93.77
2022-08-21T22:31:21.548Z,93.82
2022-08-21T22:34:06.308Z,93.27
2022-08-21T22:36:36.948Z,92.79
2022-08-21T22:39:14.119Z,92.50
2022-08-21T22:41:44.118Z,92.33
2022-08-21T22:44:53.391Z,92.50
2022-08-21T22:47:24.279Z,92.25
2022-08-21T22:49:53.964Z,92.48
2022-08-21T22:52:26.062Z,92.57
2022-08-21T22:54:57.426Z,91.99
2022-08-21T22:57:30.472Z,92.31
2022-08-21T23:00:10.826Z,92.82
2022-08-21T23:02:49.666Z,93.54
2022-08-21T23:05:20.645Z,93.21
2022-08-21T23:07:50.103Z,92.95
2022-08-21T23:10:26.367Z,92.86
2022-08-21T23:13:09.196Z,92.74
2022-08-21T23:16:05.596Z,92.66
2022-08-21T23:18:57.965Z,92.62
2022-08-21T23:21:46.288Z,92.71
2022-08-21T23:24:50.004Z,93.14
2022-08-21T23:27:35.968Z,93.04
2022-08-21T23:30:02.475Z,93.01
2022-08-21T23:32:57.284Z,92.91
2022-08-21T23:36:04.447Z,93.89
2022-08-21T23:38:55.583Z,94.11
2022-08-21T23:41:40.606Z,94.01
2022-08-21T23:44:06.931Z,93.20
2022-08-21T23:47:10.286Z,92.46
2022-08-21T23:49:47.600Z,91.99
2022-08-21T23:55:31.213Z,92.44
2022-08-21T23:58:16.002Z,92.40
